Maersk Suzhou — D5KN6 — position and weather

sailwx.info

Track history (hours):
 
Tides and Currents Weather Stations Pressure Air Temp Water Temp Dewpoint Dewpoint Depression Visibility Wind Speed Wind Dir Waves Ship Positions

Maersk Suzhou

Last reported at 2017-Oct-14 23:58 UTC. Time now 2017-Oct-19 15:06 UTC.
Position N 40°31' W 073°59'.

Length 324 m; draft 14.1 m.

Type: Cargo ship. MMSI: 636017358.

Date/timePositionNaut miles runAvg speedWind from/ knotsBaromVisibWave heightAir tempDewpointWater temp
2017-Oct-14 23:58N 40°31' W 073°59'10 7.2
2017-Oct-14 22:36N 40°39' W 074°08'3 0.2
2017-Oct-14 11:58N 40°41' W 074°09'0 0.0
2017-Oct-14 11:28N 40°41' W 074°09'0 0.0
2017-Oct-14 10:58N 40°41' W 074°09'0 0.0
2017-Oct-14 10:28N 40°41' W 074°09'0 0.0
2017-Oct-14 09:49N 40°41' W 074°09'0 0.0
2017-Oct-14 09:25N 40°41' W 074°09'0 0.0
2017-Oct-14 08:58N 40°41' W 074°09'0 0.0
2017-Oct-14 08:28N 40°41' W 074°09'0 0.0
2017-Oct-14 07:58N 40°41' W 074°09'0 0.0
2017-Oct-14 07:28N 40°41' W 074°09'0 0.0
2017-Oct-14 06:58N 40°41' W 074°09'0 0.0
2017-Oct-14 06:28N 40°41' W 074°09'0 0.0
2017-Oct-14 05:58N 40°41' W 074°09'0 0.0
2017-Oct-14 05:25N 40°41' W 074°09'0 0.0
2017-Oct-14 04:58N 40°41' W 074°09'0 0.0
2017-Oct-14 04:28N 40°41' W 074°09'0 0.0
2017-Oct-14 03:52N 40°41' W 074°09'0 0.0
2017-Oct-14 03:28N 40°41' W 074°09'0 0.0
2017-Oct-14 02:55N 40°41' W 074°09'0 0.0
2017-Oct-14 02:28N 40°41' W 074°09'0 0.0
2017-Oct-14 01:55N 40°41' W 074°09'0 0.0
2017-Oct-14 01:25N 40°41' W 074°09'0 0.0
2017-Oct-14 00:58N 40°41' W 074°09'0 0.0
2017-Oct-14 00:25N 40°41' W 074°09'0 0.0
2017-Oct-13 23:55N 40°41' W 074°09'0 0.0
2017-Oct-13 23:28N 40°41' W 074°09'0 0.0
2017-Oct-13 22:58N 40°41' W 074°09'0 0.0
2017-Oct-13 22:25N 40°41' W 074°09'0 0.0
2017-Oct-13 21:55N 40°41' W 074°09'0 0.0
2017-Oct-13 21:28N 40°41' W 074°09'0 0.0
2017-Oct-13 20:55N 40°41' W 074°09'0 0.0
2017-Oct-13 20:25N 40°41' W 074°09'0 0.0
2017-Oct-13 19:55N 40°41' W 074°09'0 0.0
2017-Oct-13 19:28N 40°41' W 074°09'0 0.0
2017-Oct-13 18:58N 40°41' W 074°09'0 0.0
2017-Oct-13 18:28N 40°41' W 074°09'0 0.0
2017-Oct-13 17:55N 40°41' W 074°09'0 0.0
2017-Oct-13 17:28N 40°41' W 074°09'0 0.0
2017-Oct-13 16:58N 40°41' W 074°09'0 0.0
2017-Oct-13 16:25N 40°41' W 074°09'0 0.0
2017-Oct-13 15:58N 40°41' W 074°09'0 0.0
2017-Oct-13 15:28N 40°41' W 074°09'0 0.0
2017-Oct-13 14:58N 40°41' W 074°09'0 0.0
2017-Oct-13 14:28N 40°41' W 074°09'0 0.0
2017-Oct-13 13:58N 40°41' W 074°09'0 0.0
2017-Oct-13 13:28N 40°41' W 074°09'0 0.0
2017-Oct-13 12:58N 40°41' W 074°09'0 0.0
2017-Oct-13 12:25N 40°41' W 074°09'0 0.0
2017-Oct-13 11:58N 40°41' W 074°09'0 0.0
2017-Oct-13 11:25N 40°41' W 074°09'0 0.2
2017-Oct-13 11:00N 40°41' W 074°09'1 2.6
2017-Oct-13 10:30N 40°40' W 074°09'1 2.5
2017-Oct-13 10:00N 40°39' W 074°08'2 4.5
2017-Oct-13 09:30N 40°39' W 074°05'2 4.1
2017-Oct-13 09:00N 40°38' W 074°03'3 5.7
2017-Oct-13 08:30N 40°35' W 074°02'4 8.8
2017-Oct-13 08:00N 40°31' W 073°59'511.0
2017-Oct-13 07:30N 40°29' W 073°53'4 8.7
2017-Oct-13 07:00N 40°26' W 073°48'4 7.8
2017-Oct-13 06:30N 40°23' W 073°47'2 4.2
2017-Oct-13 06:00N 40°21' W 073°47'612.2
2017-Oct-13 05:31N 40°15' W 073°45'917.9
2017-Oct-13 05:00N 40°06' W 073°44'918.4
2017-Oct-13 04:30N 39°57' W 073°42'918.5
2017-Oct-13 04:00N 39°47' W 073°41'918.7
2017-Oct-13 03:30N 39°38' W 073°40'918.7
2017-Oct-13 03:00N 39°29' W 073°40'918.6
2017-Oct-13 02:30N 39°19' W 073°40'918.3
2017-Oct-13 02:01N 39°10' W 073°40'1018.4
2017-Oct-13 01:28N 39°00' W 073°40'918.5
2017-Oct-13 01:00N 38°52' W 073°40'918.3
2017-Oct-13 00:30N 38°43' W 073°41'1018.1
2017-Oct-12 23:59N 38°34' W 073°44'1117.9
2017-Oct-12 23:21N 38°23' W 073°48'617.7
2017-Oct-12 22:59N 38°16' W 073°50'1017.6
2017-Oct-12 22:25N 38°07' W 073°54'22017.8
2017-Oct-12 10:05N 34°42' W 075°33'218.5
2017-Oct-12 09:57N 34°40' W 075°35'818.0
2017-Oct-12 09:29N 34°34' W 075°41'918.1
2017-Oct-12 09:00N 34°27' W 075°48'1218.3
2017-Oct-12 08:21N 34°17' W 075°56'718.2
2017-Oct-12 07:58N 34°12' W 076°01'1918.3
2017-Oct-12 06:56N 33°56' W 076°15'2418.5
2017-Oct-12 05:39N 33°37' W 076°31'  
2017-Oct-08 18:00N 26°18' W 079°11'811.6
2017-Oct-08 17:21N 26°15' W 079°19'411.7
2017-Oct-08 17:00N 26°13' W 079°23'611.6
2017-Oct-08 16:30N 26°11' W 079°29'611.5
2017-Oct-08 16:01N 26°08' W 079°35'510.0
2017-Oct-08 15:30N 26°06' W 079°40'5 9.9
2017-Oct-08 15:01N 26°03' W 079°44'510.1
2017-Oct-08 14:30N 25°60' W 079°48'611.5
2017-Oct-08 14:00N 25°56' W 079°53'611.8
2017-Oct-08 13:30N 25°51' W 079°58'611.6
2017-Oct-08 13:00N 25°47' W 080°02'5 9.3
2017-Oct-08 12:30N 25°45' W 080°07'3 5.4
2017-Oct-08 12:00N 25°46' W 080°10'0 0.6
2017-Oct-08 11:30N 25°46' W 080°09'0 0.1
2017-Oct-08 10:55N 25°46' W 080°09'0 0.0
2017-Oct-08 10:22N 25°46' W 080°09'0 0.0
2017-Oct-08 09:55N 25°46' W 080°09'0 0.0
2017-Oct-08 09:28N 25°46' W 080°09'0 0.0
2017-Oct-08 08:58N 25°46' W 080°09'0 0.0
2017-Oct-08 08:28N 25°46' W 080°09'0 0.0
2017-Oct-08 07:55N 25°46' W 080°09'0 0.0
2017-Oct-08 07:28N 25°46' W 080°09'0 0.0
2017-Oct-08 06:55N 25°46' W 080°09'0 0.0
2017-Oct-08 06:25N 25°46' W 080°09'0 0.0
2017-Oct-08 05:58N 25°46' W 080°09'0 0.0
2017-Oct-08 05:28N 25°46' W 080°09'0 0.0
2017-Oct-08 04:58N 25°46' W 080°09'0 0.0
2017-Oct-08 04:28N 25°46' W 080°09'0 0.0
2017-Oct-08 03:58N 25°46' W 080°09'0 0.0
2017-Oct-08 03:28N 25°46' W 080°09'0 0.0
2017-Oct-08 02:58N 25°46' W 080°09'0 0.0
2017-Oct-08 02:28N 25°46' W 080°09'0 0.0
2017-Oct-08 01:58N 25°46' W 080°09'0 0.0
2017-Oct-08 01:28N 25°46' W 080°09'0 0.0
2017-Oct-08 00:58N 25°46' W 080°09'0 0.0
2017-Oct-08 00:19N 25°46' W 080°09'0 0.0
2017-Oct-07 23:52N 25°46' W 080°09'0 0.0
2017-Oct-07 23:28N 25°46' W 080°09'0 0.0
2017-Oct-07 22:58N 25°46' W 080°09'0 0.0
2017-Oct-07 22:19N 25°46' W 080°09'0 0.0
2017-Oct-07 21:55N 25°46' W 080°09'0 0.0
2017-Oct-07 21:22N 25°46' W 080°09'0 0.0
2017-Oct-07 20:58N 25°46' W 080°09'0 0.0
2017-Oct-07 20:28N 25°46' W 080°09'0 0.0
2017-Oct-07 19:52N 25°46' W 080°09'0 0.0
2017-Oct-07 19:28N 25°46' W 080°09'0 0.0
2017-Oct-07 18:52N 25°46' W 080°09'0 0.0
2017-Oct-07 18:25N 25°46' W 080°09'0 0.0
2017-Oct-07 17:55N 25°46' W 080°09'0 0.0
2017-Oct-07 17:25N 25°46' W 080°09'0 0.0
2017-Oct-07 16:58N 25°46' W 080°09'0 0.0
2017-Oct-07 16:30N 25°46' W 080°09'1 2.7
2017-Oct-07 16:00N 25°46' W 080°08'4 8.8
2017-Oct-07 15:31N 25°47' W 080°03'2 3.9
2017-Oct-07 15:00N 25°46' W 080°02'1 2.3
2017-Oct-07 14:30N 25°46' W 080°00'5 9.5
2017-Oct-07 14:00N 25°50' W 079°58'4 8.6
2017-Oct-07 13:30N 25°54' W 079°56'5 9.7
2017-Oct-07 13:00N 25°57' W 079°52'714.8
2017-Oct-07 12:30N 26°04' W 079°49'714.7
2017-Oct-07 12:00N 26°12' W 079°48'714.6
2017-Oct-07 11:30N 26°19' W 079°48'815.2
2017-Oct-07 11:00N 26°26' W 079°48'715.0
2017-Oct-07 10:30N 26°34' W 079°48'2015.2
2017-Oct-07 09:12N 26°54' W 079°48'315.6
2017-Oct-07 09:00N 26°57' W 079°48'815.8
2017-Oct-07 08:30N 27°05' W 079°48'29317.3
2017-Oct-06 15:32N 31°56' W 080°19'117.9
2017-Oct-06 15:29N 31°56' W 080°20'918.0
2017-Oct-06 15:00N 31°56' W 080°30'816.0
2017-Oct-06 14:31N 31°57' W 080°39'5 9.9
2017-Oct-06 14:00N 31°59' W 080°45'713.9
2017-Oct-06 13:30N 32°02' W 080°52'510.5
2017-Oct-06 13:00N 32°04' W 080°58'4 7.6
2017-Oct-06 12:30N 32°05' W 081°02'3 6.2
2017-Oct-06 12:00N 32°05' W 081°06'2 3.0
2017-Oct-06 11:30N 32°06' W 081°07'2 3.2
2017-Oct-06 10:57N 32°08' W 081°08'1 1.3
2017-Oct-06 10:28N 32°08' W 081°09'0 0.0
2017-Oct-06 09:58N 32°08' W 081°09'0 0.0
2017-Oct-06 09:22N 32°08' W 081°09'0 0.0
2017-Oct-06 08:58N 32°08' W 081°09'0 0.0
2017-Oct-06 08:28N 32°08' W 081°09'0 0.0
2017-Oct-06 07:10N 32°08' W 081°09'0 0.0
2017-Oct-06 06:58N 32°08' W 081°09'0 0.0
2017-Oct-06 06:30N 32°08' W 081°09'0 0.0
2017-Oct-06 06:00N 32°08' W 081°09'0 0.0
2017-Oct-06 05:30N 32°08' W 081°09'0 0.0
2017-Oct-06 05:00N 32°08' W 081°09'0 0.0
2017-Oct-06 04:30N 32°08' W 081°09'0 0.0
2017-Oct-06 04:00N 32°08' W 081°09'0 0.0
2017-Oct-06 03:30N 32°08' W 081°09'0 0.0
2017-Oct-06 02:59N 32°08' W 081°09'0 0.0
2017-Oct-06 02:30N 32°08' W 081°09'0 0.0
2017-Oct-06 02:00N 32°08' W 081°09'0 0.0
2017-Oct-06 01:30N 32°08' W 081°09'0 0.0
2017-Oct-06 01:00N 32°08' W 081°09'0 0.1
2017-Oct-06 00:30N 32°08' W 081°09'0 0.0
2017-Oct-06 00:00N 32°08' W 081°09'0 0.0
2017-Oct-05 23:30N 32°08' W 081°09'0 0.0
2017-Oct-05 23:00N 32°08' W 081°09'0 0.0
2017-Oct-05 22:30N 32°08' W 081°09'0 0.0
2017-Oct-05 22:00N 32°08' W 081°09'0 0.0
2017-Oct-05 21:30N 32°08' W 081°09'0 0.0
2017-Oct-05 21:00N 32°08' W 081°09'0 0.0
2017-Oct-05 20:30N 32°08' W 081°09'0 0.0
2017-Oct-05 20:00N 32°08' W 081°09'0 0.0
2017-Oct-05 19:30N 32°08' W 081°09'0 0.0
2017-Oct-05 19:00N 32°08' W 081°09'0 0.0
2017-Oct-05 18:30N 32°08' W 081°09'0 0.0
2017-Oct-05 18:00N 32°08' W 081°09'0 0.0
2017-Oct-05 17:30N 32°08' W 081°09'0 0.0
2017-Oct-05 17:00N 32°08' W 081°09'0 0.0
2017-Oct-05 15:30N 32°08' W 081°09'0 0.0
2017-Oct-05 15:00N 32°08' W 081°09'0 0.0
2017-Oct-05 14:30N 32°08' W 081°09'0 0.0
2017-Oct-05 14:00N 32°08' W 081°09'0 0.0
2017-Oct-05 13:30N 32°08' W 081°09'0 0.0
2017-Oct-05 13:00N 32°08' W 081°09'0 0.0
2017-Oct-05 12:30N 32°08' W 081°09'0 0.0
2017-Oct-05 12:00N 32°08' W 081°09'0 0.0
2017-Oct-05 11:30N 32°08' W 081°09'0 0.0
2017-Oct-05 11:00N 32°08' W 081°09'0 0.5
2017-Oct-05 10:30N 32°08' W 081°08'2 3.4
2017-Oct-05 10:00N 32°07' W 081°07'2 5.0
2017-Oct-05 09:30N 32°05' W 081°05'3 6.5
2017-Oct-05 09:00N 32°05' W 081°01'5 9.2
2017-Oct-05 08:30N 32°03' W 080°56'510.7
2017-Oct-05 08:00N 32°02' W 080°50'712.9
2017-Oct-05 07:30N 31°58' W 080°44'5 9.8
2017-Oct-05 07:00N 31°56' W 080°39'3 6.6
2017-Oct-05 06:30N 31°56' W 080°35'4 7.5
2017-Oct-05 06:00N 31°56' W 080°31'3 6.9
2017-Oct-05 05:30N 31°57' W 080°27'3 6.5
2017-Oct-05 05:00N 31°57' W 080°23'4 8.0
2017-Oct-05 04:30N 31°58' W 080°18'  
Track history (hours):
 
Tides and Currents Weather Stations Pressure Air Temp Water Temp Dewpoint Dewpoint Depression Visibility Wind Speed Wind Dir Waves Ship Positions

Maersk Suzhou

Last reported at 2017-Oct-14 23:58 UTC. Time now 2017-Oct-19 15:06 UTC.
Position N 40°31' W 073°59'.

Length 324 m; draft 14.1 m.

Type: Cargo ship. MMSI: 636017358.

Date/timePositionNaut miles runAvg speedWind from/ knotsBaromVisibWave heightAir tempDewpointWater temp
2017-Oct-14 23:58N 40°31' W 073°59'10 7.2
2017-Oct-14 22:36N 40°39' W 074°08'3 0.2
2017-Oct-14 11:58N 40°41' W 074°09'0 0.0
2017-Oct-14 11:28N 40°41' W 074°09'0 0.0
2017-Oct-14 10:58N 40°41' W 074°09'0 0.0
2017-Oct-14 10:28N 40°41' W 074°09'0 0.0
2017-Oct-14 09:49N 40°41' W 074°09'0 0.0
2017-Oct-14 09:25N 40°41' W 074°09'0 0.0
2017-Oct-14 08:58N 40°41' W 074°09'0 0.0
2017-Oct-14 08:28N 40°41' W 074°09'0 0.0
2017-Oct-14 07:58N 40°41' W 074°09'0 0.0
2017-Oct-14 07:28N 40°41' W 074°09'0 0.0
2017-Oct-14 06:58N 40°41' W 074°09'0 0.0
2017-Oct-14 06:28N 40°41' W 074°09'0 0.0
2017-Oct-14 05:58N 40°41' W 074°09'0 0.0
2017-Oct-14 05:25N 40°41' W 074°09'0 0.0
2017-Oct-14 04:58N 40°41' W 074°09'0 0.0
2017-Oct-14 04:28N 40°41' W 074°09'0 0.0
2017-Oct-14 03:52N 40°41' W 074°09'0 0.0
2017-Oct-14 03:28N 40°41' W 074°09'0 0.0
2017-Oct-14 02:55N 40°41' W 074°09'0 0.0
2017-Oct-14 02:28N 40°41' W 074°09'0 0.0
2017-Oct-14 01:55N 40°41' W 074°09'0 0.0
2017-Oct-14 01:25N 40°41' W 074°09'0 0.0
2017-Oct-14 00:58N 40°41' W 074°09'0 0.0
2017-Oct-14 00:25N 40°41' W 074°09'0 0.0
2017-Oct-13 23:55N 40°41' W 074°09'0 0.0
2017-Oct-13 23:28N 40°41' W 074°09'0 0.0
2017-Oct-13 22:58N 40°41' W 074°09'0 0.0
2017-Oct-13 22:25N 40°41' W 074°09'0 0.0
2017-Oct-13 21:55N 40°41' W 074°09'0 0.0
2017-Oct-13 21:28N 40°41' W 074°09'0 0.0
2017-Oct-13 20:55N 40°41' W 074°09'0 0.0
2017-Oct-13 20:25N 40°41' W 074°09'0 0.0
2017-Oct-13 19:55N 40°41' W 074°09'0 0.0
2017-Oct-13 19:28N 40°41' W 074°09'0 0.0
2017-Oct-13 18:58N 40°41' W 074°09'0 0.0
2017-Oct-13 18:28N 40°41' W 074°09'0 0.0
2017-Oct-13 17:55N 40°41' W 074°09'0 0.0
2017-Oct-13 17:28N 40°41' W 074°09'0 0.0
2017-Oct-13 16:58N 40°41' W 074°09'0 0.0
2017-Oct-13 16:25N 40°41' W 074°09'0 0.0
2017-Oct-13 15:58N 40°41' W 074°09'0 0.0
2017-Oct-13 15:28N 40°41' W 074°09'0 0.0
2017-Oct-13 14:58N 40°41' W 074°09'0 0.0
2017-Oct-13 14:28N 40°41' W 074°09'0 0.0
2017-Oct-13 13:58N 40°41' W 074°09'0 0.0
2017-Oct-13 13:28N 40°41' W 074°09'0 0.0
2017-Oct-13 12:58N 40°41' W 074°09'0 0.0
2017-Oct-13 12:25N 40°41' W 074°09'0 0.0
2017-Oct-13 11:58N 40°41' W 074°09'0 0.0
2017-Oct-13 11:25N 40°41' W 074°09'0 0.2
2017-Oct-13 11:00N 40°41' W 074°09'1 2.6
2017-Oct-13 10:30N 40°40' W 074°09'1 2.5
2017-Oct-13 10:00N 40°39' W 074°08'2 4.5
2017-Oct-13 09:30N 40°39' W 074°05'2 4.1
2017-Oct-13 09:00N 40°38' W 074°03'3 5.7
2017-Oct-13 08:30N 40°35' W 074°02'4 8.8
2017-Oct-13 08:00N 40°31' W 073°59'511.0
2017-Oct-13 07:30N 40°29' W 073°53'4 8.7
2017-Oct-13 07:00N 40°26' W 073°48'4 7.8
2017-Oct-13 06:30N 40°23' W 073°47'2 4.2
2017-Oct-13 06:00N 40°21' W 073°47'612.2
2017-Oct-13 05:31N 40°15' W 073°45'917.9
2017-Oct-13 05:00N 40°06' W 073°44'918.4
2017-Oct-13 04:30N 39°57' W 073°42'918.5
2017-Oct-13 04:00N 39°47' W 073°41'918.7
2017-Oct-13 03:30N 39°38' W 073°40'918.7
2017-Oct-13 03:00N 39°29' W 073°40'918.6
2017-Oct-13 02:30N 39°19' W 073°40'918.3
2017-Oct-13 02:01N 39°10' W 073°40'1018.4
2017-Oct-13 01:28N 39°00' W 073°40'918.5
2017-Oct-13 01:00N 38°52' W 073°40'918.3
2017-Oct-13 00:30N 38°43' W 073°41'1018.1
2017-Oct-12 23:59N 38°34' W 073°44'1117.9
2017-Oct-12 23:21N 38°23' W 073°48'617.7
2017-Oct-12 22:59N 38°16' W 073°50'1017.6
2017-Oct-12 22:25N 38°07' W 073°54'22017.8
2017-Oct-12 10:05N 34°42' W 075°33'218.5
2017-Oct-12 09:57N 34°40' W 075°35'818.0
2017-Oct-12 09:29N 34°34' W 075°41'918.1
2017-Oct-12 09:00N 34°27' W 075°48'1218.3
2017-Oct-12 08:21N 34°17' W 075°56'718.2
2017-Oct-12 07:58N 34°12' W 076°01'1918.3
2017-Oct-12 06:56N 33°56' W 076°15'2418.5
2017-Oct-12 05:39N 33°37' W 076°31'  
2017-Oct-08 18:00N 26°18' W 079°11'811.6
2017-Oct-08 17:21N 26°15' W 079°19'411.7
2017-Oct-08 17:00N 26°13' W 079°23'611.6
2017-Oct-08 16:30N 26°11' W 079°29'611.5
2017-Oct-08 16:01N 26°08' W 079°35'510.0
2017-Oct-08 15:30N 26°06' W 079°40'5 9.9
2017-Oct-08 15:01N 26°03' W 079°44'510.1
2017-Oct-08 14:30N 25°60' W 079°48'611.5
2017-Oct-08 14:00N 25°56' W 079°53'611.8
2017-Oct-08 13:30N 25°51' W 079°58'611.6
2017-Oct-08 13:00N 25°47' W 080°02'5 9.3
2017-Oct-08 12:30N 25°45' W 080°07'3 5.4
2017-Oct-08 12:00N 25°46' W 080°10'0 0.6
2017-Oct-08 11:30N 25°46' W 080°09'0 0.1
2017-Oct-08 10:55N 25°46' W 080°09'0 0.0
2017-Oct-08 10:22N 25°46' W 080°09'0 0.0
2017-Oct-08 09:55N 25°46' W 080°09'0 0.0
2017-Oct-08 09:28N 25°46' W 080°09'0 0.0
2017-Oct-08 08:58N 25°46' W 080°09'0 0.0
2017-Oct-08 08:28N 25°46' W 080°09'0 0.0
2017-Oct-08 07:55N 25°46' W 080°09'0 0.0
2017-Oct-08 07:28N 25°46' W 080°09'0 0.0
2017-Oct-08 06:55N 25°46' W 080°09'0 0.0
2017-Oct-08 06:25N 25°46' W 080°09'0 0.0
2017-Oct-08 05:58N 25°46' W 080°09'0 0.0
2017-Oct-08 05:28N 25°46' W 080°09'0 0.0
2017-Oct-08 04:58N 25°46' W 080°09'0 0.0
2017-Oct-08 04:28N 25°46' W 080°09'0 0.0
2017-Oct-08 03:58N 25°46' W 080°09'0 0.0
2017-Oct-08 03:28N 25°46' W 080°09'0 0.0
2017-Oct-08 02:58N 25°46' W 080°09'0 0.0
2017-Oct-08 02:28N 25°46' W 080°09'0 0.0
2017-Oct-08 01:58N 25°46' W 080°09'0 0.0
2017-Oct-08 01:28N 25°46' W 080°09'0 0.0
2017-Oct-08 00:58N 25°46' W 080°09'0 0.0
2017-Oct-08 00:19N 25°46' W 080°09'0 0.0
2017-Oct-07 23:52N 25°46' W 080°09'0 0.0
2017-Oct-07 23:28N 25°46' W 080°09'0 0.0
2017-Oct-07 22:58N 25°46' W 080°09'0 0.0
2017-Oct-07 22:19N 25°46' W 080°09'0 0.0
2017-Oct-07 21:55N 25°46' W 080°09'0 0.0
2017-Oct-07 21:22N 25°46' W 080°09'0 0.0
2017-Oct-07 20:58N 25°46' W 080°09'0 0.0
2017-Oct-07 20:28N 25°46' W 080°09'0 0.0
2017-Oct-07 19:52N 25°46' W 080°09'0 0.0
2017-Oct-07 19:28N 25°46' W 080°09'0 0.0
2017-Oct-07 18:52N 25°46' W 080°09'0 0.0
2017-Oct-07 18:25N 25°46' W 080°09'0 0.0
2017-Oct-07 17:55N 25°46' W 080°09'0 0.0
2017-Oct-07 17:25N 25°46' W 080°09'0 0.0
2017-Oct-07 16:58N 25°46' W 080°09'0 0.0
2017-Oct-07 16:30N 25°46' W 080°09'1 2.7
2017-Oct-07 16:00N 25°46' W 080°08'4 8.8
2017-Oct-07 15:31N 25°47' W 080°03'2 3.9
2017-Oct-07 15:00N 25°46' W 080°02'1 2.3
2017-Oct-07 14:30N 25°46' W 080°00'5 9.5
2017-Oct-07 14:00N 25°50' W 079°58'4 8.6
2017-Oct-07 13:30N 25°54' W 079°56'5 9.7
2017-Oct-07 13:00N 25°57' W 079°52'714.8
2017-Oct-07 12:30N 26°04' W 079°49'714.7
2017-Oct-07 12:00N 26°12' W 079°48'714.6
2017-Oct-07 11:30N 26°19' W 079°48'815.2
2017-Oct-07 11:00N 26°26' W 079°48'715.0
2017-Oct-07 10:30N 26°34' W 079°48'2015.2
2017-Oct-07 09:12N 26°54' W 079°48'315.6
2017-Oct-07 09:00N 26°57' W 079°48'815.8
2017-Oct-07 08:30N 27°05' W 079°48'29317.3
2017-Oct-06 15:32N 31°56' W 080°19'117.9
2017-Oct-06 15:29N 31°56' W 080°20'918.0
2017-Oct-06 15:00N 31°56' W 080°30'816.0
2017-Oct-06 14:31N 31°57' W 080°39'5 9.9
2017-Oct-06 14:00N 31°59' W 080°45'713.9
2017-Oct-06 13:30N 32°02' W 080°52'510.5
2017-Oct-06 13:00N 32°04' W 080°58'4 7.6
2017-Oct-06 12:30N 32°05' W 081°02'3 6.2
2017-Oct-06 12:00N 32°05' W 081°06'2 3.0
2017-Oct-06 11:30N 32°06' W 081°07'2 3.2
2017-Oct-06 10:57N 32°08' W 081°08'1 1.3
2017-Oct-06 10:28N 32°08' W 081°09'0 0.0
2017-Oct-06 09:58N 32°08' W 081°09'0 0.0
2017-Oct-06 09:22N 32°08' W 081°09'0 0.0
2017-Oct-06 08:58N 32°08' W 081°09'0 0.0
2017-Oct-06 08:28N 32°08' W 081°09'0 0.0
2017-Oct-06 07:10N 32°08' W 081°09'0 0.0
2017-Oct-06 06:58N 32°08' W 081°09'0 0.0
2017-Oct-06 06:30N 32°08' W 081°09'0 0.0
2017-Oct-06 06:00N 32°08' W 081°09'0 0.0
2017-Oct-06 05:30N 32°08' W 081°09'0 0.0
2017-Oct-06 05:00N 32°08' W 081°09'0 0.0
2017-Oct-06 04:30N 32°08' W 081°09'0 0.0
2017-Oct-06 04:00N 32°08' W 081°09'0 0.0
2017-Oct-06 03:30N 32°08' W 081°09'0 0.0
2017-Oct-06 02:59N 32°08' W 081°09'0 0.0
2017-Oct-06 02:30N 32°08' W 081°09'0 0.0
2017-Oct-06 02:00N 32°08' W 081°09'0 0.0
2017-Oct-06 01:30N 32°08' W 081°09'0 0.0
2017-Oct-06 01:00N 32°08' W 081°09'0 0.1
2017-Oct-06 00:30N 32°08' W 081°09'0 0.0
2017-Oct-06 00:00N 32°08' W 081°09'0 0.0
2017-Oct-05 23:30N 32°08' W 081°09'0 0.0
2017-Oct-05 23:00N 32°08' W 081°09'0 0.0
2017-Oct-05 22:30N 32°08' W 081°09'0 0.0
2017-Oct-05 22:00N 32°08' W 081°09'0 0.0
2017-Oct-05 21:30N 32°08' W 081°09'0 0.0
2017-Oct-05 21:00N 32°08' W 081°09'0 0.0
2017-Oct-05 20:30N 32°08' W 081°09'0 0.0
2017-Oct-05 20:00N 32°08' W 081°09'0 0.0
2017-Oct-05 19:30N 32°08' W 081°09'0 0.0
2017-Oct-05 19:00N 32°08' W 081°09'0 0.0
2017-Oct-05 18:30N 32°08' W 081°09'0 0.0
2017-Oct-05 18:00N 32°08' W 081°09'0 0.0
2017-Oct-05 17:30N 32°08' W 081°09'0 0.0
2017-Oct-05 17:00N 32°08' W 081°09'0 0.0
2017-Oct-05 15:30N 32°08' W 081°09'0 0.0
2017-Oct-05 15:00N 32°08' W 081°09'0 0.0
2017-Oct-05 14:30N 32°08' W 081°09'0 0.0
2017-Oct-05 14:00N 32°08' W 081°09'0 0.0
2017-Oct-05 13:30N 32°08' W 081°09'0 0.0
2017-Oct-05 13:00N 32°08' W 081°09'0 0.0
2017-Oct-05 12:30N 32°08' W 081°09'0 0.0
2017-Oct-05 12:00N 32°08' W 081°09'0 0.0
2017-Oct-05 11:30N 32°08' W 081°09'0 0.0
2017-Oct-05 11:00N 32°08' W 081°09'0 0.5
2017-Oct-05 10:30N 32°08' W 081°08'2 3.4
2017-Oct-05 10:00N 32°07' W 081°07'2 5.0
2017-Oct-05 09:30N 32°05' W 081°05'3 6.5
2017-Oct-05 09:00N 32°05' W 081°01'5 9.2
2017-Oct-05 08:30N 32°03' W 080°56'510.7
2017-Oct-05 08:00N 32°02' W 080°50'712.9
2017-Oct-05 07:30N 31°58' W 080°44'5 9.8
2017-Oct-05 07:00N 31°56' W 080°39'3 6.6
2017-Oct-05 06:30N 31°56' W 080°35'4 7.5
2017-Oct-05 06:00N 31°56' W 080°31'3 6.9
2017-Oct-05 05:30N 31°57' W 080°27'3 6.5
2017-Oct-05 05:00N 31°57' W 080°23'4 8.0
2017-Oct-05 04:30N 31°58' W 080°18'  

Dump ship's entire track history